createdAt,value
2018-02-01T00:01:19.804Z,100.00
2018-02-01T00:03:47.581Z,100.00
2018-02-01T00:06:15.444Z,100.00
2018-02-01T00:08:43.203Z,100.00
2018-02-01T00:11:11.032Z,100.00
2018-02-01T00:13:38.860Z,100.00
2018-02-01T00:16:06.713Z,100.00
2018-02-01T00:18:34.567Z,100.00
2018-02-01T00:21:02.336Z,99.95
2018-02-01T00:23:33.216Z,99.76
2018-02-01T00:26:01.009Z,99.57
2018-02-01T00:28:28.842Z,99.47
2018-02-01T00:30:56.604Z,99.22
2018-02-01T00:33:24.412Z,99.05
2018-02-01T00:36:09.019Z,98.81
2018-02-01T00:38:36.922Z,98.47
2018-02-01T00:41:04.658Z,98.24
2018-02-01T00:43:32.560Z,97.99
2018-02-01T00:46:00.327Z,98.21
2018-02-01T00:48:28.124Z,98.36
2018-02-01T00:50:55.979Z,98.20
2018-02-01T00:53:23.798Z,98.27
2018-02-01T00:55:51.582Z,98.31
2018-02-01T00:58:21.700Z,98.30
2018-02-01T01:00:49.523Z,98.56
2018-02-01T01:03:17.320Z,98.82
2018-02-01T01:17:36.096Z,100.00
2018-02-01T01:20:03.972Z,100.00
2018-02-01T01:22:31.733Z,100.00
2018-02-01T01:24:59.584Z,100.00
2018-02-01T01:27:27.380Z,100.00
2018-02-01T01:29:55.239Z,100.00
2018-02-01T01:32:23.023Z,100.00
2018-02-01T01:34:50.898Z,100.00
2018-02-01T01:37:18.699Z,100.00
2018-02-01T01:39:46.480Z,100.00
2018-02-01T01:42:14.284Z,100.00
2018-02-01T01:44:42.035Z,100.00
2018-02-01T01:47:09.916Z,100.00
2018-02-01T01:49:37.721Z,100.00
2018-02-01T01:52:05.612Z,100.00
2018-02-01T01:54:33.416Z,100.00
2018-02-01T01:57:01.281Z,100.00
2018-02-01T01:59:29.049Z,100.00
2018-02-01T02:01:56.862Z,100.00
2018-02-01T02:04:24.665Z,100.00
2018-02-01T02:06:52.510Z,100.00
2018-02-01T02:09:20.312Z,100.00
2018-02-01T02:11:48.216Z,100.00
2018-02-01T02:14:16.113Z,100.00
2018-02-01T02:16:43.968Z,100.00
2018-02-01T02:19:11.843Z,100.00
2018-02-01T02:21:39.665Z,100.00
2018-02-01T02:24:07.479Z,100.00
2018-02-01T02:26:35.225Z,100.00
2018-02-01T02:29:03.129Z,100.00
2018-02-01T02:31:31.004Z,100.00
2018-02-01T02:33:58.858Z,100.00
2018-02-01T02:36:26.718Z,100.00
2018-02-01T02:38:54.548Z,100.00
2018-02-01T02:41:22.368Z,100.00
2018-02-01T02:43:50.201Z,100.00
2018-02-01T02:46:18.011Z,100.00
2018-02-01T02:48:45.836Z,100.00
2018-02-01T02:51:13.640Z,100.00
2018-02-01T02:53:41.497Z,100.00
2018-02-01T02:56:09.291Z,100.00
2018-02-01T02:58:37.024Z,100.00
2018-02-01T03:01:04.857Z,100.00
2018-02-01T03:03:32.649Z,100.00
2018-02-01T03:06:00.481Z,100.00
2018-02-01T03:08:28.343Z,100.00
2018-02-01T03:10:56.165Z,100.00
2018-02-01T03:13:23.979Z,100.00
2018-02-01T03:15:51.863Z,100.00
2018-02-01T03:18:19.664Z,100.00
2018-02-01T03:20:47.489Z,100.00
2018-02-01T03:23:15.252Z,100.00
2018-02-01T03:25:43.155Z,100.00
2018-02-01T03:28:10.957Z,100.00
2018-02-01T03:30:38.779Z,100.00
2018-02-01T03:33:06.618Z,100.00
2018-02-01T03:35:34.493Z,100.00
2018-02-01T03:38:02.312Z,100.00
2018-02-01T03:40:30.099Z,100.00
2018-02-01T03:42:58.044Z,100.00
2018-02-01T03:45:25.896Z,100.00
2018-02-01T03:47:53.724Z,100.00
2018-02-01T03:50:21.534Z,100.00
2018-02-01T03:52:49.374Z,100.00
2018-02-01T03:55:17.157Z,100.00
2018-02-01T03:57:44.939Z,100.00
2018-02-01T04:00:12.736Z,100.00
2018-02-01T04:02:40.556Z,100.00
2018-02-01T04:05:08.355Z,100.00
2018-02-01T04:07:36.168Z,100.00
2018-02-01T04:10:04.034Z,100.00
2018-02-01T04:12:31.854Z,100.00
2018-02-01T04:14:59.620Z,100.00
2018-02-01T04:17:27.416Z,100.00
2018-02-01T04:19:55.208Z,100.00
2018-02-01T04:22:22.981Z,100.00
2018-02-01T04:24:50.805Z,100.00
2018-02-01T04:27:18.566Z,100.00
2018-02-01T04:29:46.446Z,100.00
2018-02-01T04:32:14.266Z,100.00
2018-02-01T04:34:42.130Z,100.00
2018-02-01T04:37:09.902Z,100.00
2018-02-01T04:39:37.714Z,100.00
2018-02-01T04:42:06.560Z,100.00
2018-02-01T04:44:34.396Z,100.00
2018-02-01T04:47:02.167Z,100.00
2018-02-01T04:49:29.977Z,100.00
2018-02-01T04:51:57.821Z,100.00
2018-02-01T04:54:25.694Z,100.00
2018-02-01T04:56:53.575Z,100.00
2018-02-01T04:59:21.488Z,100.00
2018-02-01T05:01:49.307Z,100.00
2018-02-01T05:04:17.133Z,100.00
2018-02-01T05:06:44.991Z,100.00
2018-02-01T05:09:12.799Z,100.00
2018-02-01T05:11:40.691Z,100.00
2018-02-01T05:14:08.588Z,100.00
2018-02-01T05:16:36.470Z,100.00
2018-02-01T05:19:04.350Z,100.00
2018-02-01T05:21:32.189Z,100.00
2018-02-01T05:24:00.065Z,100.00
2018-02-01T05:26:28.022Z,100.00
2018-02-01T05:28:55.897Z,100.00
2018-02-01T05:31:23.750Z,100.00
2018-02-01T05:33:51.649Z,100.00
2018-02-01T05:36:19.468Z,100.00
2018-02-01T05:38:47.243Z,100.00
2018-02-01T05:41:15.172Z,100.00
2018-02-01T05:43:42.956Z,100.00
2018-02-01T05:46:10.787Z,100.00
2018-02-01T05:48:38.609Z,100.00
2018-02-01T05:51:06.433Z,100.00
2018-02-01T05:53:34.292Z,100.00
2018-02-01T05:56:02.086Z,100.00
2018-02-01T05:58:29.950Z,100.00
2018-02-01T06:00:57.739Z,100.00
2018-02-01T06:03:25.640Z,100.00
2018-02-01T06:05:53.434Z,100.00
2018-02-01T06:08:21.300Z,100.00
2018-02-01T06:10:49.108Z,100.00
2018-02-01T06:13:16.969Z,100.00
2018-02-01T06:15:44.715Z,100.00
2018-02-01T06:18:13.139Z,100.00
2018-02-01T06:20:40.983Z,100.00
2018-02-01T06:23:08.758Z,100.00
2018-02-01T06:25:36.605Z,100.00
2018-02-01T06:28:04.390Z,100.00
2018-02-01T06:30:32.330Z,100.00
2018-02-01T06:33:00.208Z,100.00
2018-02-01T06:35:28.111Z,100.00
2018-02-01T06:37:56.003Z,100.00
2018-02-01T06:40:23.855Z,100.00
2018-02-01T06:42:51.737Z,100.00
2018-02-01T06:45:19.637Z,100.00
2018-02-01T06:47:47.499Z,100.00
2018-02-01T06:50:15.413Z,100.00
2018-02-01T06:52:43.252Z,100.00
2018-02-01T06:55:11.162Z,100.00
2018-02-01T06:57:39.026Z,100.00
2018-02-01T07:00:06.921Z,100.00
2018-02-01T07:02:34.752Z,100.00
2018-02-01T07:05:02.622Z,100.00
2018-02-01T07:07:30.493Z,100.00
2018-02-01T07:09:58.348Z,100.00
2018-02-01T07:12:26.272Z,100.00
2018-02-01T07:14:54.089Z,100.00
2018-02-01T07:17:21.943Z,100.00
2018-02-01T07:19:49.805Z,100.00
2018-02-01T07:22:17.722Z,100.00
2018-02-01T07:24:45.571Z,100.00
2018-02-01T07:27:13.447Z,100.00
2018-02-01T07:29:41.281Z,100.00
2018-02-01T07:32:09.201Z,100.00
2018-02-01T07:34:37.068Z,100.00
2018-02-01T07:37:04.991Z,100.00
2018-02-01T07:39:32.892Z,100.00
2018-02-01T07:42:00.795Z,100.00
2018-02-01T07:44:28.612Z,100.00
2018-02-01T07:47:01.053Z,100.00
2018-02-01T07:49:30.312Z,100.00
2018-02-01T07:51:58.202Z,100.00
2018-02-01T07:54:26.098Z,100.00
2018-02-01T07:56:53.933Z,100.00
2018-02-01T07:59:21.823Z,100.00
2018-02-01T08:01:49.663Z,100.00
2018-02-01T08:04:17.534Z,100.00
2018-02-01T08:06:45.394Z,100.00
2018-02-01T08:09:13.462Z,100.00
2018-02-01T08:11:41.365Z,100.00
2018-02-01T08:14:09.273Z,100.00
2018-02-01T08:16:37.335Z,100.00
2018-02-01T08:19:05.233Z,100.00
2018-02-01T08:21:33.405Z,100.00
2018-02-01T08:24:01.645Z,100.00
2018-02-01T08:26:29.832Z,100.00
2018-02-01T08:28:57.749Z,100.00
2018-02-01T08:31:25.669Z,100.00
2018-02-01T08:33:53.683Z,100.00
2018-02-01T08:36:21.666Z,100.00
2018-02-01T08:38:49.607Z,100.00
2018-02-01T08:41:17.782Z,100.00
2018-02-01T08:43:45.859Z,100.00
2018-02-01T08:46:13.959Z,100.00
2018-02-01T08:48:41.841Z,100.00
2018-02-01T08:51:09.894Z,100.00
2018-02-01T08:53:37.767Z,100.00
2018-02-01T08:56:05.916Z,100.00
2018-02-01T08:58:33.771Z,100.00
2018-02-01T09:01:01.689Z,100.00
2018-02-01T09:03:29.528Z,100.00
2018-02-01T09:05:57.464Z,100.00
2018-02-01T09:08:25.325Z,100.00
2018-02-01T09:10:53.367Z,100.00
2018-02-01T09:13:21.240Z,100.00
2018-02-01T09:15:49.311Z,100.00
2018-02-01T09:18:17.344Z,100.00
2018-02-01T09:20:45.445Z,100.00
2018-02-01T09:23:13.536Z,100.00
2018-02-01T09:25:41.680Z,100.00
2018-02-01T09:28:09.614Z,100.00
2018-02-01T09:30:37.539Z,100.00
2018-02-01T09:33:05.436Z,100.00
2018-02-01T09:35:33.357Z,100.00
2018-02-01T09:38:01.260Z,100.00
2018-02-01T09:40:29.100Z,99.98
2018-02-01T09:42:57.012Z,99.69
2018-02-01T09:45:24.880Z,99.50
2018-02-01T09:47:52.733Z,98.85
2018-02-01T09:50:20.631Z,98.67
2018-02-01T09:52:48.507Z,98.60
2018-02-01T09:55:16.660Z,98.04
2018-02-01T09:57:44.711Z,97.58
2018-02-01T10:00:12.946Z,97.28
2018-02-01T10:02:41.077Z,97.29
2018-02-01T10:05:08.956Z,96.77
2018-02-01T10:07:36.863Z,96.81
2018-02-01T10:10:04.781Z,96.90
2018-02-01T10:12:32.732Z,96.32
2018-02-01T10:15:00.850Z,96.01
2018-02-01T10:17:28.724Z,95.88
2018-02-01T10:19:56.642Z,95.48
2018-02-01T10:22:24.608Z,94.98
2018-02-01T10:24:52.526Z,94.62
2018-02-01T10:27:20.364Z,94.43
2018-02-01T10:29:48.193Z,94.36
2018-02-01T10:32:15.971Z,94.27
2018-02-01T10:34:43.877Z,94.17
2018-02-01T10:37:11.903Z,93.98
2018-02-01T10:39:39.822Z,94.05
2018-02-01T10:42:07.634Z,94.04
2018-02-01T10:44:35.605Z,93.58
2018-02-01T10:47:03.535Z,92.92
2018-02-01T10:49:31.380Z,92.90
2018-02-01T10:51:59.297Z,93.58
2018-02-01T10:54:27.124Z,92.96
2018-02-01T10:56:54.997Z,92.60
2018-02-01T10:59:22.761Z,92.66
2018-02-01T11:01:50.601Z,92.26
2018-02-01T11:04:18.372Z,91.98
2018-02-01T11:06:46.245Z,91.53
2018-02-01T11:09:14.077Z,91.42
2018-02-01T11:11:41.973Z,90.62
2018-02-01T11:14:10.437Z,91.16
2018-02-01T11:16:38.264Z,91.14
2018-02-01T11:19:06.118Z,90.90
2018-02-01T11:21:33.934Z,90.42
2018-02-01T11:24:01.848Z,90.09
2018-02-01T11:26:29.732Z,89.75
2018-02-01T11:28:57.580Z,89.24
2018-02-01T11:31:25.494Z,89.62
2018-02-01T11:33:53.339Z,89.03
2018-02-01T11:36:21.302Z,88.44
2018-02-01T11:38:49.102Z,87.70
2018-02-01T11:41:16.970Z,87.33
2018-02-01T11:43:44.812Z,87.93
2018-02-01T11:46:12.676Z,87.97
2018-02-01T11:48:40.517Z,87.33
2018-02-01T11:51:08.431Z,87.03
2018-02-01T11:53:36.279Z,87.11
2018-02-01T11:56:04.136Z,86.64
2018-02-01T11:58:31.992Z,86.39
2018-02-01T12:00:59.879Z,85.38
2018-02-01T12:03:27.748Z,85.67
2018-02-01T12:05:55.694Z,85.70
2018-02-01T12:08:23.611Z,86.01
2018-02-01T12:10:51.455Z,85.30
2018-02-01T12:13:19.305Z,83.28
2018-02-01T12:15:47.136Z,82.17
2018-02-01T12:18:14.942Z,81.68
2018-02-01T12:20:42.806Z,83.13
2018-02-01T12:23:10.952Z,83.02
2018-02-01T12:25:38.917Z,83.13
2018-02-01T12:28:06.768Z,83.01
2018-02-01T12:30:34.610Z,82.63
2018-02-01T12:33:02.490Z,82.32
2018-02-01T12:35:30.280Z,80.62
2018-02-01T12:37:58.120Z,81.67
2018-02-01T12:40:25.897Z,82.01
2018-02-01T12:42:53.743Z,81.95
2018-02-01T12:45:21.669Z,81.25
2018-02-01T12:47:49.604Z,80.96
2018-02-01T12:50:17.427Z,81.68
2018-02-01T12:52:45.225Z,82.42
2018-02-01T12:55:13.089Z,82.10
2018-02-01T12:57:40.965Z,81.69
2018-02-01T13:00:08.816Z,82.57
2018-02-01T13:02:36.774Z,82.12
2018-02-01T13:05:04.604Z,81.91
2018-02-01T13:07:32.487Z,83.01
2018-02-01T13:10:00.328Z,82.19
2018-02-01T13:12:28.184Z,82.56
2018-02-01T13:14:55.996Z,83.15
2018-02-01T13:17:23.907Z,82.43
2018-02-01T13:19:51.720Z,81.99
2018-02-01T13:22:19.624Z,81.67
2018-02-01T13:24:47.380Z,81.55
2018-02-01T13:27:15.217Z,82.56
2018-02-01T13:29:43.517Z,81.82
2018-02-01T13:32:11.365Z,81.38
2018-02-01T13:34:39.202Z,82.18
2018-02-01T13:37:07.101Z,81.29
2018-02-01T13:39:34.872Z,82.21
2018-02-01T13:42:02.738Z,83.10
2018-02-01T13:44:30.572Z,83.17
2018-02-01T13:46:58.550Z,81.93
2018-02-01T13:49:26.508Z,82.60
2018-02-01T13:51:54.388Z,82.99
2018-02-01T13:54:22.211Z,82.65
2018-02-01T13:56:50.072Z,82.93
2018-02-01T13:59:17.916Z,83.50
2018-02-01T14:01:45.810Z,83.67
2018-02-01T14:04:13.568Z,84.49
2018-02-01T14:06:42.389Z,84.50
2018-02-01T14:09:10.254Z,84.27
2018-02-01T14:11:38.236Z,84.52
2018-02-01T14:14:06.097Z,84.75
2018-02-01T14:16:33.937Z,85.02
2018-02-01T14:19:01.846Z,85.51
2018-02-01T14:21:29.656Z,84.86
2018-02-01T14:23:57.537Z,84.89
2018-02-01T14:26:25.298Z,84.83
2018-02-01T14:28:53.196Z,85.29
2018-02-01T14:31:21.000Z,84.63
2018-02-01T14:33:48.874Z,84.55
2018-02-01T14:36:16.779Z,84.83
2018-02-01T14:38:44.668Z,84.87
2018-02-01T14:41:12.522Z,85.08
2018-02-01T14:43:40.713Z,84.71
2018-02-01T14:46:08.560Z,85.10
2018-02-01T14:48:36.416Z,85.23
2018-02-01T14:51:04.245Z,85.61
2018-02-01T14:53:32.073Z,85.70
2018-02-01T14:55:59.950Z,85.41
2018-02-01T14:58:27.814Z,85.55
2018-02-01T15:00:55.700Z,85.54
2018-02-01T15:03:23.552Z,85.57
2018-02-01T15:05:51.378Z,85.44
2018-02-01T15:08:19.217Z,85.69
2018-02-01T15:10:47.160Z,85.99
2018-02-01T15:13:14.975Z,86.06
2018-02-01T15:15:42.782Z,86.85
2018-02-01T15:18:10.621Z,86.74
2018-02-01T15:20:38.418Z,86.67
2018-02-01T15:23:06.223Z,86.77
2018-02-01T15:25:33.968Z,86.43
2018-02-01T15:28:01.832Z,86.54
2018-02-01T15:30:29.657Z,86.43
2018-02-01T15:32:57.503Z,86.50
2018-02-01T15:35:25.383Z,86.31
2018-02-01T15:37:53.214Z,86.32
2018-02-01T15:40:21.100Z,86.33
2018-02-01T15:42:49.344Z,86.26
2018-02-01T15:45:17.125Z,86.58
2018-02-01T15:47:44.993Z,86.76
2018-02-01T15:50:12.870Z,87.01
2018-02-01T15:52:40.703Z,87.52
2018-02-01T15:55:08.459Z,87.87
2018-02-01T15:57:36.292Z,88.41
2018-02-01T16:00:04.261Z,88.64
2018-02-01T16:02:32.115Z,89.13
2018-02-01T16:04:59.928Z,89.39
2018-02-01T16:07:27.727Z,90.08
2018-02-01T16:09:55.599Z,90.31
2018-02-01T16:12:23.393Z,90.71
2018-02-01T16:14:51.259Z,91.31
2018-02-01T16:17:19.062Z,91.28
2018-02-01T16:19:46.935Z,92.07
2018-02-01T16:22:14.717Z,92.39
2018-02-01T16:24:42.597Z,92.77
2018-02-01T16:27:11.479Z,93.10
2018-02-01T16:29:39.320Z,93.71
2018-02-01T16:32:07.100Z,93.57
2018-02-01T16:34:34.977Z,95.06
2018-02-01T16:37:02.742Z,95.07
2018-02-01T16:39:30.572Z,95.90
2018-02-01T16:41:58.312Z,96.34
2018-02-01T16:44:26.834Z,95.92
2018-02-01T16:46:54.743Z,95.82
2018-02-01T16:49:22.598Z,95.90
2018-02-01T16:51:50.406Z,96.07
2018-02-01T16:54:18.229Z,96.53
2018-02-01T16:56:46.012Z,96.51
2018-02-01T16:59:13.842Z,96.91
2018-02-01T17:01:41.671Z,96.78
2018-02-01T17:04:09.491Z,96.96
2018-02-01T17:06:37.288Z,97.01
2018-02-01T17:09:05.220Z,97.20
2018-02-01T17:11:33.353Z,97.38
2018-02-01T17:14:01.142Z,97.35
2018-02-01T17:16:28.965Z,97.05
2018-02-01T17:18:56.797Z,96.90
2018-02-01T17:21:24.544Z,96.70
2018-02-01T17:23:52.396Z,96.67
2018-02-01T17:26:20.204Z,96.87
2018-02-01T17:28:48.113Z,96.44
2018-02-01T17:31:15.972Z,96.26
2018-02-01T17:33:43.805Z,96.43
2018-02-01T17:36:11.709Z,96.37
2018-02-01T17:38:39.565Z,96.38
2018-02-01T17:41:07.404Z,96.43
2018-02-01T17:43:35.211Z,96.62
2018-02-01T17:46:03.049Z,96.49
2018-02-01T17:48:30.881Z,96.40
2018-02-01T17:50:58.763Z,96.42
2018-02-01T17:53:26.557Z,96.62
2018-02-01T17:55:54.446Z,96.84
2018-02-01T17:58:22.244Z,96.78
2018-02-01T18:00:50.100Z,96.72
2018-02-01T18:03:17.903Z,96.86
2018-02-01T18:05:45.805Z,97.14
2018-02-01T18:08:13.648Z,97.05
2018-02-01T18:10:41.579Z,96.89
2018-02-01T18:13:09.399Z,96.78
2018-02-01T18:15:37.291Z,96.93
2018-02-01T18:18:05.103Z,97.07
2018-02-01T18:20:32.967Z,97.43
2018-02-01T18:23:00.758Z,97.50
2018-02-01T18:25:28.637Z,97.84
2018-02-01T18:27:56.447Z,97.91
2018-02-01T18:30:24.326Z,98.15
2018-02-01T18:32:52.109Z,98.30
2018-02-01T18:35:20.016Z,98.44
2018-02-01T18:37:47.891Z,98.70
2018-02-01T18:40:15.784Z,98.76
2018-02-01T18:42:43.619Z,98.85
2018-02-01T18:45:11.461Z,98.91
2018-02-01T18:47:39.293Z,99.01
2018-02-01T18:50:07.210Z,98.93
2018-02-01T18:52:35.034Z,98.87
2018-02-01T18:55:02.915Z,99.03
2018-02-01T18:57:30.719Z,99.05
2018-02-01T18:59:58.566Z,99.20
2018-02-01T19:02:26.375Z,99.03
2018-02-01T19:04:54.263Z,98.97
2018-02-01T19:07:22.040Z,98.97
2018-02-01T19:09:49.838Z,98.97
2018-02-01T19:12:17.643Z,99.06
2018-02-01T19:14:45.480Z,98.98
2018-02-01T19:17:13.318Z,98.87
2018-02-01T19:19:41.185Z,98.67
2018-02-01T19:22:08.968Z,98.85
2018-02-01T19:24:36.848Z,98.98
2018-02-01T19:27:04.665Z,98.93
2018-02-01T19:29:32.458Z,98.76
2018-02-01T19:32:00.315Z,98.71
2018-02-01T19:34:28.123Z,98.92
2018-02-01T19:36:56.039Z,99.07
2018-02-01T19:39:23.880Z,99.31
2018-02-01T19:41:51.787Z,99.35
2018-02-01T19:44:19.599Z,99.35
2018-02-01T19:46:47.499Z,99.60
2018-02-01T19:49:15.314Z,99.65
2018-02-01T19:51:43.122Z,99.76
2018-02-01T19:54:10.928Z,99.75
2018-02-01T19:56:38.825Z,99.88
2018-02-01T19:59:06.648Z,100.00
2018-02-01T20:01:34.598Z,100.00
2018-02-01T20:04:02.459Z,100.00
2018-02-01T20:06:30.350Z,100.00
2018-02-01T20:08:58.174Z,100.00
2018-02-01T20:11:26.038Z,100.00
2018-02-01T20:13:53.800Z,100.00
2018-02-01T20:16:21.698Z,100.00
2018-02-01T20:18:49.497Z,100.00
2018-02-01T20:21:17.368Z,100.00
2018-02-01T20:23:45.176Z,100.00
2018-02-01T20:26:13.077Z,100.00
2018-02-01T20:28:40.896Z,100.00
2018-02-01T20:31:08.757Z,100.00
2018-02-01T20:33:36.560Z,100.00
2018-02-01T20:36:04.396Z,100.00
2018-02-01T20:38:32.195Z,100.00
2018-02-01T20:41:00.060Z,100.00
2018-02-01T20:43:27.872Z,100.00
2018-02-01T20:45:55.756Z,100.00
2018-02-01T20:48:23.553Z,100.00
2018-02-01T20:50:51.379Z,100.00
2018-02-01T20:53:19.198Z,100.00
2018-02-01T20:55:47.047Z,100.00
2018-02-01T20:58:14.882Z,100.00
2018-02-01T21:00:42.752Z,100.00
2018-02-01T21:03:10.600Z,100.00
2018-02-01T21:05:38.436Z,100.00
2018-02-01T21:08:06.196Z,100.00
2018-02-01T21:10:34.064Z,100.00
2018-02-01T21:13:01.851Z,100.00
2018-02-01T21:15:29.681Z,100.00
2018-02-01T21:17:57.509Z,100.00
2018-02-01T21:20:25.331Z,100.00
2018-02-01T21:22:53.179Z,100.00
2018-02-01T21:25:20.966Z,100.00
2018-02-01T21:27:48.843Z,100.00
2018-02-01T21:30:16.688Z,100.00
2018-02-01T21:32:44.559Z,100.00
2018-02-01T21:35:12.380Z,100.00
2018-02-01T21:37:40.311Z,100.00
2018-02-01T21:40:08.142Z,100.00
2018-02-01T21:42:36.046Z,100.00
2018-02-01T21:45:03.917Z,100.00
2018-02-01T21:47:32.761Z,100.00
2018-02-01T21:50:00.583Z,100.00
2018-02-01T21:52:28.464Z,100.00
2018-02-01T21:54:56.247Z,100.00
2018-02-01T21:57:24.119Z,100.00
2018-02-01T21:59:51.936Z,100.00
2018-02-01T22:02:19.819Z,100.00
2018-02-01T22:04:47.584Z,100.00
2018-02-01T22:07:15.428Z,100.00
2018-02-01T22:09:43.258Z,100.00
2018-02-01T22:12:11.089Z,100.00
2018-02-01T22:14:38.921Z,100.00
2018-02-01T22:17:06.790Z,100.00
2018-02-01T22:19:34.601Z,100.00
2018-02-01T22:22:02.495Z,100.00
2018-02-01T22:24:30.358Z,100.00
2018-02-01T22:26:58.296Z,100.00
2018-02-01T22:29:26.089Z,100.00
2018-02-01T22:31:53.950Z,100.00
2018-02-01T22:34:21.754Z,100.00
2018-02-01T22:36:49.665Z,100.00
2018-02-01T22:39:17.496Z,100.00
2018-02-01T22:41:45.385Z,100.00
2018-02-01T22:44:13.135Z,100.00
2018-02-01T22:46:41.001Z,100.00
2018-02-01T22:49:08.829Z,100.00
2018-02-01T22:51:36.652Z,100.00
2018-02-01T22:54:04.469Z,100.00
2018-02-01T22:56:32.286Z,100.00
2018-02-01T22:59:00.134Z,100.00
2018-02-01T23:01:27.952Z,100.00
2018-02-01T23:03:55.797Z,100.00
2018-02-01T23:06:23.595Z,100.00
2018-02-01T23:08:51.476Z,100.00
2018-02-01T23:11:19.261Z,100.00
2018-02-01T23:13:47.123Z,100.00
2018-02-01T23:16:14.904Z,99.87
2018-02-01T23:18:42.739Z,99.63
2018-02-01T23:21:10.545Z,99.40
2018-02-01T23:23:38.360Z,99.06
2018-02-01T23:26:06.183Z,98.99
2018-02-01T23:28:33.989Z,98.97
2018-02-01T23:31:01.845Z,98.93
2018-02-01T23:33:29.692Z,99.13
2018-02-01T23:35:57.534Z,99.59
2018-02-01T23:38:25.385Z,99.45
2018-02-01T23:40:53.159Z,99.09
2018-02-01T23:43:20.996Z,98.84
2018-02-01T23:45:48.798Z,98.55
2018-02-01T23:48:16.635Z,98.39
2018-02-01T23:50:44.425Z,98.13
2018-02-01T23:53:12.263Z,97.69
2018-02-01T23:55:40.064Z,97.42
2018-02-01T23:58:07.920Z,97.12
